Time;durP1;ratioP1;P1;durP2;ratioP2;P2;SDS_P1;SDS_P2;PMS_P1;PMS_P2;Temp;Humidity;BMP_temperature;BMP_pressure;BME280_temperature;BME280_humidity;BME280_pressure;Samples;Min_cycle;Max_cycle;Signal;HPM_P1;HPM_P2
2023/08/20 00:01:34;;;;;;;6.75;5.90;;;;;;;;;;4948314;28;20055;-79
2023/08/20 00:04:02;;;;;;;6.63;6.03;;;;;;;;;;4934213;29;20047;-78
2023/08/20 00:06:30;;;;;;;6.47;5.97;;;;;;;;;;4928503;29;20094;-79
2023/08/20 00:08:57;;;;;;;6.53;6.03;;;;;;;;;;4950729;28;20075;-79
2023/08/20 00:11:25;;;;;;;6.53;6.03;;;;;;;;;;4950420;28;20134;-79
2023/08/20 00:13:52;;;;;;;6.38;5.82;;;;;;;;;;4951119;28;20446;-79
2023/08/20 00:16:20;;;;;;;7.38;5.70;;;;;;;;;;4952809;28;20090;-79
2023/08/20 00:18:47;;;;;;;7.90;5.90;;;;;;;;;;4950116;28;20055;-78
2023/08/20 00:21:15;;;;;;;8.23;6.25;;;;;;;;;;4954112;28;20055;-79
2023/08/20 00:23:42;;;;;;;7.03;6.25;;;;;;;;;;4958475;28;20082;-78
2023/08/20 00:26:11;;;;;;;6.32;5.78;;;;;;;;;;4950234;28;20047;-78
2023/08/20 00:28:40;;;;;;;6.13;5.70;;;;;;;;;;4953175;28;20416;-78
2023/08/20 00:31:07;;;;;;;6.70;5.80;;;;;;;;;;4933745;29;20049;-79
2023/08/20 00:33:36;;;;;;;6.20;5.70;;;;;;;;;;4936525;29;20051;-79
2023/08/20 00:36:03;;;;;;;6.70;6.10;;;;;;;;;;4951197;28;20071;-79
2023/08/20 00:38:32;;;;;;;6.22;5.72;;;;;;;;;;4952339;29;20058;-78
2023/08/20 00:41:01;;;;;;;8.32;6.20;;;;;;;;;;4934112;29;20529;-79
2023/08/20 00:43:29;;;;;;;6.22;5.72;;;;;;;;;;4936534;28;20314;-79
2023/08/20 00:45:56;;;;;;;6.53;5.95;;;;;;;;;;4949955;28;20081;-79
2023/08/20 00:48:24;;;;;;;6.75;6.15;;;;;;;;;;4946514;28;20463;-79
2023/08/20 00:50:52;;;;;;;7.10;6.45;;;;;;;;;;4929414;29;20055;-79
2023/08/20 00:53:19;;;;;;;7.38;6.47;;;;;;;;;;4948973;28;20429;-79
2023/08/20 00:55:48;;;;;;;6.78;6.18;;;;;;;;;;4946972;28;20366;-78
2023/08/20 00:58:15;;;;;;;6.95;6.25;;;;;;;;;;4926483;28;20321;-78
2023/08/20 01:00:43;;;;;;;10.98;6.57;;;;;;;;;;4930356;29;20137;-79
2023/08/20 01:03:10;;;;;;;6.15;5.53;;;;;;;;;;4931317;28;20345;-79
2023/08/20 01:05:43;;;;;;;6.65;6.13;;;;;;;;;;4930185;29;20394;-79
2023/08/20 01:08:16;;;;;;;6.30;5.80;;;;;;;;;;4950281;28;20051;-79
2023/08/20 01:10:56;;;;;;;7.50;6.80;;;;;;;;;;4932055;29;20055;-78
2023/08/20 01:13:24;;;;;;;6.43;5.88;;;;;;;;;;4927010;29;20050;-78
2023/08/20 01:15:51;;;;;;;6.72;6.15;;;;;;;;;;4932291;28;20170;-78
2023/08/20 01:18:19;;;;;;;7.35;6.60;;;;;;;;;;4948318;28;20201;-79
2023/08/20 01:20:50;;;;;;;7.55;6.90;;;;;;;;;;4928931;29;20505;-78
2023/08/20 01:23:23;;;;;;;9.07;7.13;;;;;;;;;;4941942;28;20458;-79
2023/08/20 01:26:01;;;;;;;6.55;6.03;;;;;;;;;;4946327;28;20102;-79
2023/08/20 01:28:30;;;;;;;6.57;6.00;;;;;;;;;;4947567;28;20058;-78
2023/08/20 01:30:58;;;;;;;7.13;6.53;;;;;;;;;;4937881;28;20049;-79
2023/08/20 01:33:26;;;;;;;7.32;6.63;;;;;;;;;;4945334;28;20058;-79
2023/08/20 01:35:54;;;;;;;7.45;6.72;;;;;;;;;;4932125;29;20137;-79
2023/08/20 01:38:22;;;;;;;8.95;6.53;;;;;;;;;;4947317;28;20080;-78
2023/08/20 01:40:50;;;;;;;6.75;6.05;;;;;;;;;;4929334;29;20047;-79
2023/08/20 01:43:17;;;;;;;6.88;6.28;;;;;;;;;;4942743;28;20051;-78
2023/08/20 01:45:44;;;;;;;7.50;6.80;;;;;;;;;;4932489;29;20060;-79
2023/08/20 01:48:12;;;;;;;7.28;6.68;;;;;;;;;;4950015;28;20059;-79
2023/08/20 01:50:40;;;;;;;7.47;6.88;;;;;;;;;;4951738;28;20055;-79
2023/08/20 01:53:07;;;;;;;7.38;6.78;;;;;;;;;;4932913;28;20062;-79
2023/08/20 01:55:36;;;;;;;6.93;6.32;;;;;;;;;;4950243;28;20053;-78
2023/08/20 01:58:03;;;;;;;6.93;6.32;;;;;;;;;;4918375;28;20105;-78
2023/08/20 02:00:33;;;;;;;6.70;6.10;;;;;;;;;;4934310;29;20477;-79
2023/08/20 02:03:01;;;;;;;7.03;6.47;;;;;;;;;;4951060;28;20108;-79
2023/08/20 02:05:29;;;;;;;8.85;6.75;;;;;;;;;;4932828;29;20047;-78
2023/08/20 02:07:57;;;;;;;7.60;6.60;;;;;;;;;;4932455;28;20059;-79
2023/08/20 02:10:24;;;;;;;6.75;6.25;;;;;;;;;;4930677;29;20043;-78
2023/08/20 02:12:52;;;;;;;10.23;7.25;;;;;;;;;;4950240;28;20054;-79
2023/08/20 02:15:19;;;;;;;7.38;6.60;;;;;;;;;;4927467;29;20051;-79
2023/08/20 02:17:47;;;;;;;7.45;6.68;;;;;;;;;;4951237;28;20074;-78
2023/08/20 02:20:14;;;;;;;8.40;7.13;;;;;;;;;;4951299;28;20059;-79
2023/08/20 02:22:42;;;;;;;7.90;7.10;;;;;;;;;;4934475;29;20102;-79
2023/08/20 02:25:09;;;;;;;7.60;6.90;;;;;;;;;;4957058;28;20494;-79
2023/08/20 02:27:37;;;;;;;6.68;6.03;;;;;;;;;;4932649;29;20051;-79
2023/08/20 02:30:05;;;;;;;6.57;6.07;;;;;;;;;;4936752;29;20457;-79
2023/08/20 02:32:33;;;;;;;6.68;6.15;;;;;;;;;;4935738;28;20087;-79
2023/08/20 02:35:01;;;;;;;7.40;6.70;;;;;;;;;;4936680;29;20158;-79
2023/08/20 02:37:28;;;;;;;7.50;6.90;;;;;;;;;;4941386;28;20046;-79
2023/08/20 02:39:56;;;;;;;8.15;7.45;;;;;;;;;;4940009;28;20573;-78
2023/08/20 02:42:24;;;;;;;8.43;7.32;;;;;;;;;;4934774;29;20075;-79
2023/08/20 02:44:51;;;;;;;6.80;6.28;;;;;;;;;;4952252;28;20051;-78
2023/08/20 02:47:18;;;;;;;7.50;6.90;;;;;;;;;;4937601;28;20078;-79
2023/08/20 02:49:46;;;;;;;7.20;6.40;;;;;;;;;;4936156;29;20062;-79
2023/08/20 02:52:13;;;;;;;7.10;6.50;;;;;;;;;;4953184;29;20047;-79
2023/08/20 02:54:40;;;;;;;7.20;6.57;;;;;;;;;;4938106;29;20079;-78
2023/08/20 02:57:08;;;;;;;7.60;6.90;;;;;;;;;;4954602;28;20054;-79
2023/08/20 02:59:35;;;;;;;8.18;7.05;;;;;;;;;;4955486;28;20059;-79
2023/08/20 03:02:03;;;;;;;7.20;6.50;;;;;;;;;;4935623;29;20051;-79
2023/08/20 03:04:32;;;;;;;7.88;7.03;;;;;;;;;;4932480;29;20051;-79
2023/08/20 03:06:59;;;;;;;6.93;6.30;;;;;;;;;;4929147;28;20077;-78
2023/08/20 03:09:26;;;;;;;7.07;6.57;;;;;;;;;;4950004;29;20062;-79
2023/08/20 03:11:54;;;;;;;8.73;6.70;;;;;;;;;;4931167;29;20094;-79
2023/08/20 03:14:21;;;;;;;9.40;6.40;;;;;;;;;;4933868;29;20113;-79
2023/08/20 03:16:49;;;;;;;7.15;6.40;;;;;;;;;;4949352;28;20130;-78
2023/08/20 03:19:18;;;;;;;8.20;6.30;;;;;;;;;;4931367;29;20054;-79
2023/08/20 03:21:45;;;;;;;7.43;6.30;;;;;;;;;;4952120;28;20055;-79
2023/08/20 03:24:13;;;;;;;7.35;6.85;;;;;;;;;;4935414;28;20055;-79
2023/08/20 03:26:40;;;;;;;7.25;6.75;;;;;;;;;;4932490;29;20106;-78
2023/08/20 03:29:07;;;;;;;6.60;6.00;;;;;;;;;;4934128;29;20051;-79
2023/08/20 03:31:35;;;;;;;6.55;6.05;;;;;;;;;;4934935;29;20139;-78
2023/08/20 03:34:03;;;;;;;6.63;6.05;;;;;;;;;;4933912;29;20138;-79
2023/08/20 03:36:30;;;;;;;6.97;6.43;;;;;;;;;;4932798;29;20163;-79
2023/08/20 03:38:58;;;;;;;6.63;6.10;;;;;;;;;;4934197;29;20043;-79
2023/08/20 03:41:25;;;;;;;6.20;5.72;;;;;;;;;;4932963;29;20047;-79
2023/08/20 03:43:53;;;;;;;6.80;6.30;;;;;;;;;;4934405;29;20062;-78
2023/08/20 03:46:20;;;;;;;6.75;6.25;;;;;;;;;;4951130;28;20701;-79
2023/08/20 03:48:48;;;;;;;7.07;6.43;;;;;;;;;;4935194;29;20063;-79
2023/08/20 03:51:15;;;;;;;7.07;6.57;;;;;;;;;;4932718;29;20142;-79
2023/08/20 03:53:43;;;;;;;7.30;6.75;;;;;;;;;;4934346;29;20128;-78
2023/08/20 03:56:11;;;;;;;6.97;6.38;;;;;;;;;;4932108;29;20061;-79
2023/08/20 03:58:39;;;;;;;6.75;6.07;;;;;;;;;;4935584;29;20058;-79
2023/08/20 04:01:06;;;;;;;7.10;6.50;;;;;;;;;;4933605;28;20083;-79
2023/08/20 04:03:34;;;;;;;7.70;6.82;;;;;;;;;;4934255;29;20567;-79
2023/08/20 04:06:02;;;;;;;6.88;6.38;;;;;;;;;;4933145;29;20545;-78
2023/08/20 04:08:30;;;;;;;6.78;6.25;;;;;;;;;;4952866;29;20059;-79
2023/08/20 04:10:57;;;;;;;6.65;6.15;;;;;;;;;;4932899;29;20923;-78
2023/08/20 04:13:24;;;;;;;6.80;6.20;;;;;;;;;;4952063;28;20106;-78
2023/08/20 04:15:52;;;;;;;6.88;6.38;;;;;;;;;;4936480;29;20067;-78
2023/08/20 04:18:20;;;;;;;6.75;6.15;;;;;;;;;;4942037;28;20102;-79
2023/08/20 04:20:47;;;;;;;6.97;6.05;;;;;;;;;;4935756;29;20063;-79
2023/08/20 04:23:15;;;;;;;6.85;6.25;;;;;;;;;;4934939;28;20082;-79
2023/08/20 04:25:44;;;;;;;6.38;5.88;;;;;;;;;;4950981;29;20134;-78
2023/08/20 04:28:13;;;;;;;6.70;6.20;;;;;;;;;;4954337;28;20047;-79
2023/08/20 04:30:41;;;;;;;6.85;6.35;;;;;;;;;;4932065;29;20134;-78
2023/08/20 04:33:08;;;;;;;6.32;5.78;;;;;;;;;;4932361;28;20457;-79
2023/08/20 04:35:38;;;;;;;7.22;6.53;;;;;;;;;;4933115;29;20052;-79
2023/08/20 04:38:06;;;;;;;6.30;5.90;;;;;;;;;;4932163;29;20051;-78
2023/08/20 04:40:34;;;;;;;7.35;6.63;;;;;;;;;;4929473;29;20043;-79
2023/08/20 04:43:01;;;;;;;6.80;6.30;;;;;;;;;;4931664;29;20229;-79
2023/08/20 04:45:29;;;;;;;6.78;6.28;;;;;;;;;;4927385;29;20541;-78
2023/08/20 04:47:56;;;;;;;6.90;6.40;;;;;;;;;;4936301;29;20050;-79
2023/08/20 04:50:24;;;;;;;6.80;6.13;;;;;;;;;;4933216;28;20047;-78
2023/08/20 04:52:51;;;;;;;6.22;5.72;;;;;;;;;;4940057;28;20489;-79
2023/08/20 04:55:19;;;;;;;6.57;5.97;;;;;;;;;;4925231;29;20051;-79
2023/08/20 04:57:47;;;;;;;6.97;6.32;;;;;;;;;;4933379;29;20050;-78
2023/08/20 05:00:15;;;;;;;6.28;5.75;;;;;;;;;;4948792;28;20055;-78
2023/08/20 05:02:50;;;;;;;6.60;6.10;;;;;;;;;;4923822;28;20055;-79
2023/08/20 05:05:19;;;;;;;6.68;6.22;;;;;;;;;;4928188;29;20077;-79
2023/08/20 05:07:49;;;;;;;7.18;6.50;;;;;;;;;;4927930;29;20221;-79
2023/08/20 05:10:16;;;;;;;7.30;6.55;;;;;;;;;;4924237;29;20051;-79
2023/08/20 05:12:43;;;;;;;6.93;6.45;;;;;;;;;;4949216;28;20110;-78
2023/08/20 05:15:11;;;;;;;6.97;6.45;;;;;;;;;;4929238;29;20050;-79
2023/08/20 05:17:39;;;;;;;7.05;6.45;;;;;;;;;;4934054;29;20059;-79
2023/08/20 05:20:08;;;;;;;6.93;6.35;;;;;;;;;;4933390;29;20062;-79
2023/08/20 05:22:36;;;;;;;7.25;6.65;;;;;;;;;;4927263;29;20085;-79
2023/08/20 05:25:03;;;;;;;6.60;6.10;;;;;;;;;;4932488;28;20042;-79
2023/08/20 05:27:31;;;;;;;7.88;6.60;;;;;;;;;;4943963;28;20043;-78
2023/08/20 05:30:03;;;;;;;7.70;6.90;;;;;;;;;;4929287;29;20051;-79
2023/08/20 05:32:30;;;;;;;7.28;6.57;;;;;;;;;;4928298;28;20443;-78
2023/08/20 05:34:58;;;;;;;7.80;7.10;;;;;;;;;;4951107;28;20047;-79
2023/08/20 05:37:25;;;;;;;7.20;6.53;;;;;;;;;;4928950;29;20881;-79
2023/08/20 05:39:54;;;;;;;7.13;6.63;;;;;;;;;;4921765;29;20050;-78
2023/08/20 05:42:24;;;;;;;;;;;;;;;;;;4920741;28;20155;-79
2023/08/20 05:45:01;;;;;;;7.43;6.43;;;;;;;;;;4931044;28;22080;-79
2023/08/20 05:47:29;;;;;;;7.10;6.60;;;;;;;;;;4918415;28;20091;-79
2023/08/20 05:49:57;;;;;;;6.72;6.22;;;;;;;;;;4920908;29;20138;-79
2023/08/20 05:52:24;;;;;;;7.70;7.00;;;;;;;;;;4920805;28;20047;-78
2023/08/20 05:54:52;;;;;;;9.07;6.85;;;;;;;;;;4946387;28;20043;-79
2023/08/20 05:57:20;;;;;;;7.53;6.85;;;;;;;;;;4913648;29;20138;-79
2023/08/20 05:59:48;;;;;;;8.60;6.90;;;;;;;;;;4920446;28;20052;-79
2023/08/20 06:02:19;;;;;;;6.75;6.32;;;;;;;;;;4914257;29;20149;-79
2023/08/20 06:04:47;;;;;;;6.53;6.13;;;;;;;;;;4910307;29;22351;-79
2023/08/20 06:07:14;;;;;;;7.10;6.40;;;;;;;;;;4935105;28;20051;-79
2023/08/20 06:09:42;;;;;;;7.47;6.75;;;;;;;;;;4941374;23;20050;-80
2023/08/20 06:12:10;;;;;;;6.65;6.07;;;;;;;;;;4921399;28;20138;-81
2023/08/20 06:14:38;;;;;;;6.75;6.25;;;;;;;;;;4934201;28;20039;-82
2023/08/20 06:17:06;;;;;;;7.15;6.55;;;;;;;;;;4930400;29;20047;-80
2023/08/20 06:19:34;;;;;;;9.25;7.30;;;;;;;;;;4941330;29;20052;-80
2023/08/20 06:22:07;;;;;;;7.45;6.75;;;;;;;;;;4922544;29;20123;-80
2023/08/20 06:24:35;;;;;;;8.32;6.45;;;;;;;;;;4954346;28;20055;-79
2023/08/20 06:27:02;;;;;;;7.47;6.55;;;;;;;;;;4931005;29;20053;-79
2023/08/20 06:29:29;;;;;;;7.70;7.00;;;;;;;;;;4933169;29;20083;-79
2023/08/20 06:31:57;;;;;;;6.95;6.40;;;;;;;;;;4935828;29;20066;-77
2023/08/20 06:34:25;;;;;;;8.50;7.07;;;;;;;;;;4942651;29;20059;-78
2023/08/20 06:36:52;;;;;;;7.75;7.15;;;;;;;;;;4912216;29;20055;-79
2023/08/20 06:39:20;;;;;;;7.20;6.32;;;;;;;;;;4925116;29;20337;-79
2023/08/20 06:41:47;;;;;;;7.40;6.28;;;;;;;;;;4922924;29;20061;-78
2023/08/20 06:44:21;;;;;;;6.78;5.95;;;;;;;;;;4917343;29;20130;-78
2023/08/20 06:46:49;;;;;;;7.10;6.28;;;;;;;;;;4916043;29;20099;-78
2023/08/20 06:49:16;;;;;;;6.90;6.25;;;;;;;;;;4934147;29;20059;-79
2023/08/20 06:51:44;;;;;;;7.05;6.43;;;;;;;;;;4924718;29;20494;-79
2023/08/20 06:54:11;;;;;;;6.95;6.35;;;;;;;;;;4933007;29;20052;-78
2023/08/20 06:56:39;;;;;;;7.00;6.50;;;;;;;;;;4934877;29;20071;-78
2023/08/20 06:59:06;;;;;;;7.07;6.40;;;;;;;;;;4929598;29;20063;-79
2023/08/20 07:01:33;;;;;;;6.65;6.05;;;;;;;;;;4930647;28;20050;-78
2023/08/20 07:04:01;;;;;;;6.85;6.35;;;;;;;;;;4944621;28;20100;-78
2023/08/20 07:06:31;;;;;;;7.45;6.70;;;;;;;;;;4930600;29;20565;-79
2023/08/20 07:08:58;;;;;;;6.90;6.30;;;;;;;;;;4909753;29;20043;-82
2023/08/20 07:11:26;;;;;;;7.63;6.93;;;;;;;;;;4935457;29;20413;-78
2023/08/20 07:13:53;;;;;;;7.40;6.80;;;;;;;;;;4926286;29;20044;-78
2023/08/20 07:16:21;;;;;;;7.05;6.35;;;;;;;;;;4935722;29;20048;-79
2023/08/20 07:18:48;;;;;;;7.20;6.68;;;;;;;;;;4932240;29;20040;-79
2023/08/20 07:21:16;;;;;;;6.45;6.03;;;;;;;;;;4908575;29;20130;-79
2023/08/20 07:23:43;;;;;;;7.00;6.45;;;;;;;;;;4921249;29;20055;-79
2023/08/20 07:26:12;;;;;;;8.43;6.50;;;;;;;;;;4931598;28;20048;-78
2023/08/20 07:28:58;;;;;;;5.97;5.57;;;;;;;;;;4936918;29;20055;-78
2023/08/20 07:31:26;;;;;;;6.78;6.28;;;;;;;;;;4942221;29;20059;-78
2023/08/20 07:33:55;;;;;;;6.32;5.85;;;;;;;;;;4946514;29;20039;-78
2023/08/20 07:36:23;;;;;;;6.57;6.05;;;;;;;;;;4929254;29;20048;-79
2023/08/20 07:38:52;;;;;;;6.60;6.10;;;;;;;;;;4912342;29;20078;-79
2023/08/20 07:41:19;;;;;;;6.10;5.70;;;;;;;;;;4939636;29;20035;-78
2023/08/20 07:43:47;;;;;;;6.93;6.22;;;;;;;;;;4918304;29;20061;-78
2023/08/20 07:46:15;;;;;;;6.25;5.70;;;;;;;;;;4935187;29;20123;-78
2023/08/20 07:48:43;;;;;;;6.30;5.90;;;;;;;;;;4915262;29;20955;-80
2023/08/20 07:51:10;;;;;;;7.97;5.70;;;;;;;;;;4927332;29;20044;-79
2023/08/20 07:53:38;;;;;;;6.03;5.63;;;;;;;;;;4936376;29;20111;-78
2023/08/20 07:56:05;;;;;;;6.93;6.32;;;;;;;;;;4929620;29;20102;-78
2023/08/20 07:58:32;;;;;;;6.03;5.63;;;;;;;;;;4925949;29;20110;-78
2023/08/20 08:01:00;;;;;;;6.40;5.90;;;;;;;;;;4938807;29;20050;-78
2023/08/20 08:03:27;;;;;;;6.57;5.97;;;;;;;;;;4935143;29;20163;-79
2023/08/20 08:05:56;;;;;;;6.35;5.85;;;;;;;;;;4936926;29;20058;-80
2023/08/20 08:08:24;;;;;;;6.00;5.43;;;;;;;;;;4932040;29;20055;-79
2023/08/20 08:10:51;;;;;;;5.80;5.22;;;;;;;;;;4936391;29;20051;-78
2023/08/20 08:13:20;;;;;;;5.60;5.20;;;;;;;;;;4937929;29;20107;-78
2023/08/20 08:15:49;;;;;;;6.72;6.03;;;;;;;;;;4931524;29;20044;-79
2023/08/20 08:18:16;;;;;;;5.60;5.05;;;;;;;;;;4936233;29;20136;-79
2023/08/20 08:20:43;;;;;;;5.90;5.35;;;;;;;;;;4941133;29;20498;-79
2023/08/20 08:23:11;;;;;;;5.10;4.80;;;;;;;;;;4927169;29;20079;-79
2023/08/20 08:25:39;;;;;;;5.28;4.97;;;;;;;;;;4935924;29;20067;-78
2023/08/20 08:28:06;;;;;;;5.18;4.68;;;;;;;;;;4928194;29;20131;-79
2023/08/20 08:30:34;;;;;;;5.70;5.30;;;;;;;;;;4913244;29;20087;-79
2023/08/20 08:33:02;;;;;;;5.30;5.00;;;;;;;;;;4929375;29;20375;-80
2023/08/20 08:35:29;;;;;;;6.05;5.53;;;;;;;;;;4927874;29;20059;-80
2023/08/20 08:37:57;;;;;;;5.57;5.05;;;;;;;;;;4925524;29;20090;-79
2023/08/20 08:40:29;;;;;;;5.65;5.15;;;;;;;;;;4927905;29;20052;-79
2023/08/20 08:42:56;;;;;;;5.55;5.15;;;;;;;;;;4925540;29;20059;-79
2023/08/20 08:45:24;;;;;;;5.20;4.90;;;;;;;;;;4926777;29;20052;-79
2023/08/20 08:47:54;;;;;;;5.85;5.35;;;;;;;;;;4925548;29;20099;-78
2023/08/20 08:50:22;;;;;;;5.60;5.20;;;;;;;;;;4924308;29;20388;-79
2023/08/20 08:52:52;;;;;;;5.28;4.97;;;;;;;;;;4919470;29;20131;-79
2023/08/20 08:55:20;;;;;;;5.22;4.93;;;;;;;;;;4923063;29;20067;-79
2023/08/20 08:57:47;;;;;;;6.05;5.55;;;;;;;;;;4910732;29;20036;-79
2023/08/20 09:00:15;;;;;;;5.53;4.88;;;;;;;;;;4928703;29;20510;-79
2023/08/20 09:02:42;;;;;;;5.90;5.32;;;;;;;;;;4924774;29;20126;-78
2023/08/20 09:05:11;;;;;;;5.78;5.18;;;;;;;;;;4925475;29;20474;-78
2023/08/20 09:07:41;;;;;;;5.85;4.97;;;;;;;;;;4924641;29;20139;-79
2023/08/20 09:10:09;;;;;;;5.00;4.70;;;;;;;;;;4924451;29;20235;-78
2023/08/20 09:12:36;;;;;;;4.80;4.40;;;;;;;;;;4927589;29;20107;-79
2023/08/20 09:15:10;;;;;;;6.30;4.70;;;;;;;;;;4928747;29;20427;-79
2023/08/20 09:17:37;;;;;;;5.00;4.60;;;;;;;;;;4929464;29;20047;-79
2023/08/20 09:20:05;;;;;;;10.77;4.82;;;;;;;;;;4924901;29;20487;-78
2023/08/20 09:22:32;;;;;;;4.97;4.60;;;;;;;;;;4928367;29;20055;-79
2023/08/20 09:25:01;;;;;;;4.90;4.60;;;;;;;;;;4927525;29;20067;-80
2023/08/20 09:27:28;;;;;;;4.63;4.43;;;;;;;;;;4914821;29;20486;-79
2023/08/20 09:29:59;;;;;;;5.55;5.03;;;;;;;;;;4902242;29;20134;-79
2023/08/20 09:32:28;;;;;;;4.90;4.60;;;;;;;;;;4922358;29;20073;-79
2023/08/20 09:34:56;;;;;;;4.90;4.50;;;;;;;;;;4920449;29;20042;-79
2023/08/20 09:37:24;;;;;;;4.75;4.35;;;;;;;;;;4905509;29;20119;-79
2023/08/20 09:39:52;;;;;;;4.80;4.50;;;;;;;;;;4925284;29;20050;-79
2023/08/20 09:42:19;;;;;;;4.70;4.40;;;;;;;;;;4925404;29;20055;-79
2023/08/20 09:44:48;;;;;;;5.10;4.70;;;;;;;;;;4927533;29;20510;-78
2023/08/20 09:47:19;;;;;;;5.60;4.30;;;;;;;;;;4928387;29;20051;-79
2023/08/20 09:49:47;;;;;;;5.00;4.60;;;;;;;;;;4927796;29;20055;-79
2023/08/20 09:52:35;;;;;;;4.82;4.50;;;;;;;;;;4929442;29;20054;-79
2023/08/20 09:55:10;;;;;;;4.80;4.50;;;;;;;;;;4913602;29;20413;-79
2023/08/20 09:57:38;;;;;;;5.55;5.03;;;;;;;;;;4927474;29;20052;-79
2023/08/20 10:00:10;;;;;;;4.63;4.22;;;;;;;;;;4928693;29;20052;-79
2023/08/20 10:02:41;;;;;;;4.10;3.80;;;;;;;;;;4924302;29;20115;-79
2023/08/20 10:05:10;;;;;;;4.32;4.07;;;;;;;;;;4928075;29;20126;-79
2023/08/20 10:07:37;;;;;;;4.22;4.03;;;;;;;;;;4926178;29;20155;-79
2023/08/20 10:10:06;;;;;;;4.32;4.10;;;;;;;;;;4929507;29;20330;-78
2023/08/20 10:12:34;;;;;;;4.57;4.20;;;;;;;;;;4928870;29;20075;-79
2023/08/20 10:15:02;;;;;;;4.57;4.28;;;;;;;;;;4929072;29;20430;-79
2023/08/20 10:17:33;;;;;;;4.03;3.72;;;;;;;;;;4929248;29;20395;-79
2023/08/20 10:20:04;;;;;;;4.40;4.10;;;;;;;;;;4919674;29;20137;-79
2023/08/20 10:22:39;;;;;;;3.95;3.75;;;;;;;;;;4931856;29;20043;-78
2023/08/20 10:25:22;;;;;;;3.67;3.47;;;;;;;;;;4924041;29;20086;-80
2023/08/20 10:27:49;;;;;;;3.85;3.50;;;;;;;;;;4910898;29;20331;-79
2023/08/20 10:30:20;;;;;;;4.28;3.75;;;;;;;;;;4926233;29;20067;-79
2023/08/20 10:32:51;;;;;;;3.63;3.42;;;;;;;;;;4920240;29;20043;-79
2023/08/20 10:35:23;;;;;;;3.22;3.08;;;;;;;;;;4927620;29;20154;-79
2023/08/20 10:38:12;;;;;;;3.60;3.38;;;;;;;;;;4927296;29;20055;-79
2023/08/20 10:40:47;;;;;;;4.50;3.90;;;;;;;;;;4920027;29;20062;-79
2023/08/20 10:43:28;;;;;;;3.50;3.30;;;;;;;;;;4924316;29;20490;-79
2023/08/20 10:46:04;;;;;;;3.75;3.45;;;;;;;;;;4941028;29;20236;-78
2023/08/20 10:48:37;;;;;;;3.70;3.40;;;;;;;;;;4938837;29;20055;-78
2023/08/20 10:51:11;;;;;;;3.90;3.70;;;;;;;;;;4942091;29;20063;-78
2023/08/20 10:53:40;;;;;;;6.53;3.20;;;;;;;;;;4940057;29;20040;-78
2023/08/20 10:56:10;;;;;;;3.80;3.50;;;;;;;;;;4929674;29;20047;-78
2023/08/20 10:58:42;;;;;;;3.90;3.58;;;;;;;;;;4927894;29;20055;-78
2023/08/20 11:01:23;;;;;;;3.25;3.05;;;;;;;;;;4929900;29;20048;-78
2023/08/20 11:03:51;;;;;;;3.88;3.60;;;;;;;;;;4931634;29;20055;-78
2023/08/20 11:06:19;;;;;;;3.25;3.05;;;;;;;;;;4924339;29;20102;-77
2023/08/20 11:08:47;;;;;;;4.07;3.80;;;;;;;;;;4929634;29;20075;-77
2023/08/20 11:11:15;;;;;;;4.03;3.63;;;;;;;;;;4933688;29;20047;-78
2023/08/20 11:13:43;;;;;;;4.82;3.10;;;;;;;;;;4930626;29;20095;-78
2023/08/20 11:16:10;;;;;;;3.67;3.05;;;;;;;;;;4941232;29;20506;-78
2023/08/20 11:18:38;;;;;;;4.07;3.80;;;;;;;;;;4950311;29;20051;-80
2023/08/20 11:21:05;;;;;;;3.40;3.10;;;;;;;;;;4953968;29;20051;-79
2023/08/20 11:23:33;;;;;;;3.22;3.03;;;;;;;;;;4935151;29;20098;-80
2023/08/20 11:26:01;;;;;;;3.13;2.90;;;;;;;;;;4935276;29;20056;-80
2023/08/20 11:28:29;;;;;;;3.22;3.03;;;;;;;;;;4937113;29;20044;-78
2023/08/20 11:30:57;;;;;;;3.33;3.05;;;;;;;;;;4920653;29;20537;-78
2023/08/20 11:33:26;;;;;;;3.47;2.85;;;;;;;;;;4938253;29;20099;-78
2023/08/20 11:35:53;;;;;;;2.72;2.60;;;;;;;;;;4938443;29;20055;-78
2023/08/20 11:38:25;;;;;;;16.35;3.25;;;;;;;;;;4928149;29;20557;-78
2023/08/20 11:40:52;;;;;;;3.20;2.90;;;;;;;;;;4934293;29;20115;-78
2023/08/20 11:43:20;;;;;;;3.22;2.72;;;;;;;;;;4933734;29;20047;-79
2023/08/20 11:45:48;;;;;;;3.28;3.08;;;;;;;;;;4931450;29;20442;-78
2023/08/20 11:48:17;;;;;;;3.05;2.85;;;;;;;;;;4924874;29;20056;-79
2023/08/20 11:50:45;;;;;;;3.08;2.88;;;;;;;;;;4917055;29;20052;-79
2023/08/20 11:53:12;;;;;;;3.17;2.65;;;;;;;;;;4911825;29;20052;-80
2023/08/20 11:55:43;;;;;;;2.70;2.60;;;;;;;;;;4912172;29;20051;-79
2023/08/20 11:58:14;;;;;;;3.88;3.15;;;;;;;;;;4921788;29;20381;-79
2023/08/20 12:00:41;;;;;;;4.68;3.05;;;;;;;;;;4915354;29;20083;-79
2023/08/20 12:03:10;;;;;;;3.15;2.90;;;;;;;;;;4919042;29;20092;-78
2023/08/20 12:05:42;;;;;;;3.03;2.83;;;;;;;;;;4923773;29;20067;-78
2023/08/20 12:08:15;;;;;;;3.03;2.80;;;;;;;;;;4931706;29;20043;-79
2023/08/20 12:10:43;;;;;;;4.22;2.70;;;;;;;;;;4958466;23;20135;-71
2023/08/20 12:13:12;;;;;;;3.08;2.72;;;;;;;;;;4928074;29;20048;-72
2023/08/20 12:15:40;;;;;;;2.70;2.60;;;;;;;;;;4912076;29;20047;-72
2023/08/20 12:18:08;;;;;;;3.03;2.83;;;;;;;;;;4911469;29;20049;-72
2023/08/20 12:20:36;;;;;;;3.15;2.95;;;;;;;;;;4928384;29;20489;-72
2023/08/20 12:23:05;;;;;;;3.13;3.00;;;;;;;;;;4911534;29;20086;-72
2023/08/20 12:25:34;;;;;;;2.78;2.55;;;;;;;;;;4925962;29;20059;-71
2023/08/20 12:28:04;;;;;;;4.93;2.42;;;;;;;;;;4937526;29;21054;-72
2023/08/20 12:30:34;;;;;;;2.90;2.70;;;;;;;;;;4912389;29;20119;-71
2023/08/20 12:33:05;;;;;;;2.80;2.60;;;;;;;;;;4906658;29;20058;-73
2023/08/20 12:35:34;;;;;;;2.70;2.58;;;;;;;;;;4898945;29;20144;-72
2023/08/20 12:38:01;;;;;;;3.40;2.53;;;;;;;;;;4909937;29;20134;-72
2023/08/20 12:40:29;;;;;;;3.10;2.78;;;;;;;;;;4932228;29;20079;-72
2023/08/20 12:42:57;;;;;;;3.03;2.83;;;;;;;;;;4909789;29;20430;-72
2023/08/20 12:45:24;;;;;;;4.88;2.42;;;;;;;;;;4914628;29;20118;-72
2023/08/20 12:47:53;;;;;;;2.75;2.55;;;;;;;;;;4913986;29;20043;-72
2023/08/20 12:50:21;;;;;;;2.70;2.47;;;;;;;;;;4914096;29;20051;-71
2023/08/20 12:52:50;;;;;;;2.78;2.58;;;;;;;;;;4916671;29;20417;-73
2023/08/20 12:55:18;;;;;;;2.72;2.55;;;;;;;;;;4919578;29;20047;-73
2023/08/20 12:57:53;;;;;;;4.30;2.50;;;;;;;;;;4928656;29;20051;-73
2023/08/20 13:00:25;;;;;;;3.47;2.60;;;;;;;;;;4928743;29;20051;-73
2023/08/20 13:02:53;;;;;;;4.22;2.60;;;;;;;;;;4929192;29;20075;-73
2023/08/20 13:05:22;;;;;;;2.33;2.22;;;;;;;;;;4907786;29;20044;-72
2023/08/20 13:07:50;;;;;;;3.05;2.42;;;;;;;;;;4906658;28;20055;-72
2023/08/20 13:10:18;;;;;;;2.42;2.33;;;;;;;;;;4909704;29;20159;-72
2023/08/20 13:12:50;;;;;;;2.42;2.33;;;;;;;;;;4926207;29;20055;-71
2023/08/20 13:15:18;;;;;;;4.85;2.20;;;;;;;;;;4915147;29;20059;-73
2023/08/20 13:17:46;;;;;;;2.67;2.47;;;;;;;;;;4910044;29;20059;-72
2023/08/20 13:20:14;;;;;;;2.47;2.28;;;;;;;;;;4908056;29;20404;-72
2023/08/20 13:22:42;;;;;;;2.50;2.30;;;;;;;;;;4905275;29;20155;-72
2023/08/20 13:25:10;;;;;;;2.70;1.98;;;;;;;;;;4916930;29;20097;-73
2023/08/20 13:27:38;;;;;;;2.22;2.13;;;;;;;;;;4914434;29;20066;-72
2023/08/20 13:30:06;;;;;;;2.20;2.10;;;;;;;;;;4917920;29;20329;-73
2023/08/20 13:32:33;;;;;;;2.55;2.45;;;;;;;;;;4915869;29;20079;-71
2023/08/20 13:35:04;;;;;;;2.60;2.40;;;;;;;;;;4909686;29;20577;-70
2023/08/20 13:37:32;;;;;;;2.20;2.10;;;;;;;;;;4903819;29;20044;-72
2023/08/20 13:40:00;;;;;;;3.22;2.22;;;;;;;;;;4909407;29;20103;-72
2023/08/20 13:42:27;;;;;;;2.40;2.30;;;;;;;;;;4914905;29;20496;-72
2023/08/20 13:44:55;;;;;;;2.20;2.10;;;;;;;;;;4912194;29;20060;-72
2023/08/20 13:47:23;;;;;;;2.85;2.50;;;;;;;;;;4909769;29;20267;-73
2023/08/20 13:49:50;;;;;;;2.40;2.30;;;;;;;;;;4909079;29;20138;-72
2023/08/20 13:52:18;;;;;;;3.55;2.17;;;;;;;;;;4916395;29;20545;-72
2023/08/20 13:54:46;;;;;;;2.40;2.30;;;;;;;;;;4906932;29;20142;-71
2023/08/20 13:57:14;;;;;;;2.40;2.30;;;;;;;;;;4899406;29;20442;-72
2023/08/20 13:59:42;;;;;;;2.35;2.13;;;;;;;;;;4907295;29;20052;-74
2023/08/20 14:02:12;;;;;;;2.30;2.20;;;;;;;;;;4926508;29;20047;-73
2023/08/20 14:04:39;;;;;;;3.20;2.10;;;;;;;;;;4911090;29;20048;-73
2023/08/20 14:07:07;;;;;;;2.50;2.30;;;;;;;;;;4907602;29;20122;-73
2023/08/20 14:09:35;;;;;;;2.58;2.38;;;;;;;;;;4909756;29;20048;-73
2023/08/20 14:12:03;;;;;;;2.13;2.13;;;;;;;;;;4909071;29;20115;-73
2023/08/20 14:14:31;;;;;;;2.35;2.15;;;;;;;;;;4929534;29;20443;-73
2023/08/20 14:16:59;;;;;;;2.08;1.98;;;;;;;;;;4900171;29;20048;-72
2023/08/20 14:19:26;;;;;;;2.80;2.60;;;;;;;;;;4906494;29;20052;-73
2023/08/20 14:21:54;;;;;;;2.20;2.10;;;;;;;;;;4920853;29;20311;-73
2023/08/20 14:24:22;;;;;;;2.20;2.10;;;;;;;;;;4928506;29;20062;-73
2023/08/20 14:26:49;;;;;;;2.28;2.08;;;;;;;;;;4929712;29;20047;-73
2023/08/20 14:29:17;;;;;;;2.83;2.50;;;;;;;;;;4904689;29;20058;-73
2023/08/20 14:31:44;;;;;;;2.47;2.17;;;;;;;;;;4913859;29;20079;-74
2023/08/20 14:34:13;;;;;;;3.35;2.20;;;;;;;;;;4911255;29;20062;-73
2023/08/20 14:36:41;;;;;;;3.67;2.40;;;;;;;;;;4906243;29;20044;-72
2023/08/20 14:39:09;;;;;;;4.63;2.15;;;;;;;;;;4897283;29;20126;-73
2023/08/20 14:41:36;;;;;;;2.22;2.10;;;;;;;;;;4936088;29;20240;-72
2023/08/20 14:44:04;;;;;;;2.20;2.10;;;;;;;;;;4911637;29;20055;-72
2023/08/20 14:46:31;;;;;;;2.78;1.80;;;;;;;;;;4909660;29;21097;-73
2023/08/20 14:48:59;;;;;;;2.45;2.28;;;;;;;;;;4920278;29;20047;-73
2023/08/20 14:51:28;;;;;;;2.35;2.00;;;;;;;;;;4926936;29;20052;-73